Time;durP1;ratioP1;P1;durP2;ratioP2;P2;SDS_P1;SDS_P2;PMS_P1;PMS_P2;Temp;Humidity;BMP_temperature;BMP_pressure;BME280_temperature;BME280_humidity;BME280_pressure;Samples;Min_cycle;Max_cycle;Signal;HPM_P1;HPM_P2
2023/07/15 00:38:27;;;;;;;1.80;1.70;;;24.40;54.20;;;;;;6270406;22;20576;-81
2023/07/15 00:40:54;;;;;;;2.40;2.20;;;24.40;54.40;;;;;;6240334;22;20417;-84
2023/07/15 00:43:58;;;;;;;1.90;1.80;;;24.40;54.40;;;;;;6240374;22;20411;-83
2023/07/15 00:46:31;;;;;;;2.23;2.03;;;24.30;54.50;;;;;;6257027;22;20391;-82
2023/07/15 00:49:05;;;;;;;2.70;2.03;;;24.30;54.60;;;;;;6266197;22;20438;-83
2023/07/15 00:51:37;;;;;;;2.93;2.07;;;24.30;54.90;;;;;;6268482;22;20443;-84
2023/07/15 00:54:05;;;;;;;2.90;1.70;;;24.40;54.70;;;;;;6242768;22;20406;-83
2023/07/15 00:56:35;;;;;;;2.93;2.33;;;24.30;55.00;;;;;;6245570;22;20415;-83
2023/07/15 00:59:02;;;;;;;3.10;2.20;;;24.20;55.20;;;;;;6246582;22;20623;-84
2023/07/15 01:01:29;;;;;;;2.93;1.97;;;24.20;55.20;;;;;;6248771;22;20422;-86
2023/07/15 01:03:56;;;;;;;2.00;1.90;;;24.20;55.40;;;;;;6271704;22;20606;-82
2023/07/15 01:06:24;;;;;;;2.90;2.30;;;24.10;55.60;;;;;;6275932;22;20402;-82
2023/07/15 01:08:50;;;;;;;2.27;2.07;;;24.10;55.70;;;;;;6286325;22;20477;-84
2023/07/15 01:11:17;;;;;;;3.07;2.23;;;24.10;55.60;;;;;;6261423;22;20445;-84
2023/07/15 01:13:45;;;;;;;2.10;2.00;;;24.00;55.50;;;;;;6264725;22;20560;-83
2023/07/15 01:16:12;;;;;;;3.00;2.30;;;24.00;55.80;;;;;;6263071;22;20449;-84
2023/07/15 01:18:40;;;;;;;3.90;2.00;;;24.00;55.80;;;;;;6262825;22;20439;-85
2023/07/15 01:21:08;;;;;;;1.73;1.63;;;23.90;56.10;;;;;;6255016;22;20442;-83
2023/07/15 01:23:35;;;;;;;4.50;2.87;;;23.90;56.10;;;;;;6252093;22;20410;-83
2023/07/15 01:26:02;;;;;;;2.40;2.20;;;23.90;56.30;;;;;;6270804;22;20407;-83
2023/07/15 01:28:29;;;;;;;2.57;2.03;;;23.80;56.40;;;;;;6245453;22;20475;-83
2023/07/15 01:30:58;;;;;;;2.27;2.07;;;23.80;56.70;;;;;;6239959;22;20517;-83
2023/07/15 01:33:25;;;;;;;2.10;1.90;;;23.80;57.00;;;;;;6272240;22;20950;-83
2023/07/15 01:35:52;;;;;;;3.17;2.10;;;23.70;56.80;;;;;;6276569;22;20469;-84
2023/07/15 01:38:19;;;;;;;3.53;2.47;;;23.70;57.10;;;;;;6242512;22;20445;-85
2023/07/15 01:40:46;;;;;;;3.00;2.37;;;23.70;57.10;;;;;;6269047;22;20438;-84
2023/07/15 01:43:13;;;;;;;2.83;2.53;;;23.60;57.20;;;;;;6269469;22;20441;-85
2023/07/15 01:45:39;;;;;;;2.20;2.00;;;23.70;57.60;;;;;;6268788;22;20733;-84
2023/07/15 01:48:07;;;;;;;1.90;1.80;;;23.60;57.50;;;;;;6238526;22;20459;-84
2023/07/15 01:50:37;;;;;;;2.50;2.30;;;23.70;57.70;;;;;;6240102;22;20806;-84
2023/07/15 01:53:05;;;;;;;2.47;2.30;;;23.70;57.50;;;;;;6268341;22;20403;-84
2023/07/15 01:55:31;;;;;;;2.57;2.37;;;23.70;57.30;;;;;;6267112;22;20438;-84
2023/07/15 01:57:58;;;;;;;2.17;1.97;;;23.60;57.50;;;;;;6240560;22;21213;-84
2023/07/15 02:00:25;;;;;;;2.77;2.57;;;23.60;57.60;;;;;;6268285;22;20419;-83
2023/07/15 02:02:51;;;;;;;2.77;2.33;;;23.60;57.70;;;;;;6253094;22;20408;-84
2023/07/15 02:05:18;;;;;;;1.83;1.73;;;23.50;58.00;;;;;;6285077;22;20521;-86
2023/07/15 02:07:45;;;;;;;2.47;2.23;;;23.50;58.40;;;;;;6255092;22;20419;-85
2023/07/15 02:10:12;;;;;;;2.70;2.50;;;23.50;58.80;;;;;;6246793;22;20422;-83
2023/07/15 02:12:38;;;;;;;2.30;1.87;;;23.50;59.00;;;;;;6244540;22;20411;-82
2023/07/15 02:15:06;;;;;;;2.50;2.30;;;23.40;59.40;;;;;;6271109;22;20473;-83
2023/07/15 02:17:33;;;;;;;2.50;2.30;;;23.50;59.70;;;;;;6270538;22;20403;-84
2023/07/15 02:20:01;;;;;;;3.90;2.37;;;23.60;59.70;;;;;;6244990;22;20471;-84
2023/07/15 02:22:28;;;;;;;2.60;2.13;;;23.70;59.80;;;;;;6244150;22;20766;-84
2023/07/15 02:24:54;;;;;;;2.97;2.07;;;23.60;59.90;;;;;;6270364;22;20439;-83
2023/07/15 02:27:21;;;;;;;1.93;1.83;;;23.50;60.40;;;;;;6243177;22;20411;-84
2023/07/15 02:29:48;;;;;;;2.40;2.20;;;23.40;60.20;;;;;;6270239;22;20431;-83
2023/07/15 02:32:34;;;;;;;2.47;2.27;;;23.40;60.20;;;;;;6273036;22;20490;-83
2023/07/15 02:35:02;;;;;;;2.63;2.43;;;23.30;60.30;;;;;;6253636;22;21311;-84
2023/07/15 02:37:28;;;;;;;2.73;2.00;;;23.20;59.70;;;;;;6253565;22;20441;-84
2023/07/15 02:39:55;;;;;;;2.57;2.20;;;23.20;59.80;;;;;;6283963;22;20480;-85
2023/07/15 02:42:22;;;;;;;3.80;2.27;;;23.20;59.60;;;;;;6282104;22;20411;-84
2023/07/15 02:44:49;;;;;;;2.20;2.10;;;23.20;59.60;;;;;;6254986;22;20438;-84
2023/07/15 02:47:15;;;;;;;2.33;1.90;;;23.20;59.70;;;;;;6246188;22;20891;-84
2023/07/15 02:49:42;;;;;;;2.23;1.80;;;23.20;59.80;;;;;;6271501;22;20412;-83
2023/07/15 02:52:09;;;;;;;2.87;2.60;;;23.10;59.80;;;;;;6272428;22;20419;-85
2023/07/15 02:54:37;;;;;;;2.30;2.10;;;23.00;59.90;;;;;;6252255;22;20407;-84
2023/07/15 02:57:04;;;;;;;2.03;1.90;;;23.10;60.00;;;;;;6256171;22;20414;-83
2023/07/15 02:59:33;;;;;;;3.10;2.57;;;23.20;59.90;;;;;;6270626;22;20457;-84
2023/07/15 03:02:00;;;;;;;4.60;1.83;;;23.20;60.00;;;;;;6272656;22;20869;-84
2023/07/15 03:04:27;;;;;;;2.30;2.20;;;23.10;59.90;;;;;;6244514;22;20475;-86
2023/07/15 03:06:55;;;;;;;2.00;1.90;;;23.10;60.00;;;;;;6273588;22;20406;-84
2023/07/15 03:09:22;;;;;;;2.00;1.90;;;23.10;60.30;;;;;;6245149;22;20859;-82
2023/07/15 03:11:48;;;;;;;2.13;1.97;;;23.00;60.50;;;;;;6247988;22;20407;-83
2023/07/15 03:14:15;;;;;;;2.70;2.00;;;23.00;60.70;;;;;;6250262;22;20476;-82
2023/07/15 03:16:42;;;;;;;2.83;2.30;;;23.00;61.00;;;;;;6252521;22;20399;-82
2023/07/15 03:19:09;;;;;;;2.17;2.00;;;23.10;60.80;;;;;;6258022;22;20424;-84
2023/07/15 03:21:38;;;;;;;2.30;2.10;;;23.10;61.30;;;;;;6261566;22;20403;-83
2023/07/15 03:24:05;;;;;;;4.17;2.37;;;23.10;61.30;;;;;;6254023;22;20419;-83
2023/07/15 03:26:32;;;;;;;2.97;1.60;;;23.10;61.70;;;;;;6259092;22;20463;-84
2023/07/15 03:28:59;;;;;;;2.57;2.10;;;23.00;61.80;;;;;;6293845;22;20439;-84
2023/07/15 03:31:26;;;;;;;3.00;1.90;;;22.90;62.20;;;;;;6267022;22;20407;-84
2023/07/15 03:33:53;;;;;;;2.70;2.47;;;22.90;62.70;;;;;;6267226;22;20453;-84
2023/07/15 03:36:20;;;;;;;3.03;2.70;;;22.90;62.90;;;;;;6293113;22;20482;-81
2023/07/15 03:38:47;;;;;;;2.03;1.93;;;22.90;63.40;;;;;;6292971;22;20507;-83
2023/07/15 03:41:13;;;;;;;2.40;2.20;;;23.00;63.90;;;;;;6266553;22;20419;-84
2023/07/15 03:43:40;;;;;;;3.17;2.13;;;23.10;64.10;;;;;;6294187;22;20430;-84
2023/07/15 03:46:07;;;;;;;2.63;2.30;;;23.20;64.00;;;;;;6266456;22;20474;-82
2023/07/15 03:48:34;;;;;;;2.77;2.50;;;23.20;63.80;;;;;;6292259;22;20445;-83
2023/07/15 03:51:01;;;;;;;5.10;2.60;;;23.10;64.10;;;;;;6293329;22;20392;-84
2023/07/15 03:53:28;;;;;;;2.00;1.90;;;23.20;64.30;;;;;;6255580;22;20443;-83
2023/07/15 03:55:55;;;;;;;3.60;2.50;;;23.40;63.40;;;;;;6258136;22;20466;-83
2023/07/15 03:58:22;;;;;;;2.23;2.03;;;23.60;62.90;;;;;;6261335;22;20472;-83
2023/07/15 04:00:49;;;;;;;3.00;2.67;;;23.60;62.90;;;;;;6267063;22;20449;-84
2023/07/15 04:03:16;;;;;;;2.73;2.40;;;23.60;62.80;;;;;;6267343;22;20399;-83
2023/07/15 04:05:43;;;;;;;2.87;2.13;;;23.50;62.20;;;;;;6267944;22;20403;-85
2023/07/15 04:08:11;;;;;;;2.30;2.10;;;23.40;62.60;;;;;;6260724;22;20495;-83
2023/07/15 04:10:38;;;;;;;2.30;2.00;;;23.50;62.00;;;;;;6292749;22;20391;-84
2023/07/15 04:13:05;;;;;;;4.23;2.20;;;23.40;62.10;;;;;;6263585;22;20518;-84
2023/07/15 04:15:32;;;;;;;2.30;2.10;;;23.30;61.90;;;;;;6248395;22;20387;-85
2023/07/15 04:17:58;;;;;;;2.00;1.90;;;23.50;61.50;;;;;;6247994;22;20821;-85
2023/07/15 04:20:25;;;;;;;2.30;2.20;;;23.30;61.60;;;;;;6246685;22;20443;-83
2023/07/15 04:22:52;;;;;;;2.53;2.33;;;23.20;61.90;;;;;;6247144;22;20407;-83
2023/07/15 04:25:19;;;;;;;1.97;1.83;;;23.50;62.40;;;;;;6247633;22;20408;-82
2023/07/15 04:27:46;;;;;;;2.13;1.93;;;23.70;62.10;;;;;;6273710;22;20437;-84
2023/07/15 04:30:12;;;;;;;2.47;2.20;;;23.80;61.90;;;;;;6247109;22;20415;-82
2023/07/15 04:32:39;;;;;;;2.70;2.50;;;23.80;61.80;;;;;;6248547;22;20468;-83
2023/07/15 04:35:06;;;;;;;2.50;2.17;;;23.80;61.00;;;;;;6275600;22;20410;-82
2023/07/15 04:37:33;;;;;;;2.30;2.10;;;23.80;60.90;;;;;;6273926;22;20486;-84
2023/07/15 04:40:03;;;;;;;1.90;1.80;;;23.70;60.80;;;;;;6245932;22;20438;-85
2023/07/15 04:42:30;;;;;;;2.07;1.97;;;23.70;61.50;;;;;;6248561;22;20687;-84
2023/07/15 04:44:58;;;;;;;5.10;4.60;;;23.70;61.30;;;;;;6275350;22;20403;-85
2023/07/15 04:47:26;;;;;;;3.87;1.87;;;23.60;61.20;;;;;;6275941;22;20403;-84
2023/07/15 04:49:52;;;;;;;2.70;2.10;;;23.80;60.90;;;;;;6249132;22;20415;-84
2023/07/15 04:52:20;;;;;;;2.10;1.90;;;23.80;61.00;;;;;;6277511;22;20410;-85
2023/07/15 04:54:47;;;;;;;4.00;2.10;;;23.80;62.20;;;;;;6277458;22;20830;-85
2023/07/15 04:57:16;;;;;;;2.50;2.10;;;23.90;63.90;;;;;;6252486;22;20475;-85
2023/07/15 04:59:45;;;;;;;3.10;2.30;;;23.90;64.50;;;;;;6253744;22;20450;-84
2023/07/15 05:02:12;;;;;;;2.73;2.20;;;23.80;64.60;;;;;;6282525;22;20418;-82
2023/07/15 05:04:39;;;;;;;2.17;1.97;;;23.90;64.50;;;;;;6281003;22;20430;-85
2023/07/15 05:07:06;;;;;;;2.93;2.10;;;23.70;64.50;;;;;;6268615;22;20403;-82
2023/07/15 05:09:33;;;;;;;2.20;2.10;;;23.70;65.10;;;;;;6266969;22;20417;-85
2023/07/15 05:12:00;;;;;;;2.63;1.93;;;23.90;64.10;;;;;;6290759;22;20469;-83
2023/07/15 05:14:27;;;;;;;2.93;1.70;;;24.00;63.70;;;;;;6245892;22;21247;-85
2023/07/15 05:16:55;;;;;;;7.50;2.07;;;24.20;62.40;;;;;;6245989;22;20998;-84
2023/07/15 05:19:23;;;;;;;2.23;2.03;;;24.20;61.80;;;;;;6245657;22;20483;-83
2023/07/15 05:21:50;;;;;;;2.33;2.10;;;24.30;61.00;;;;;;6273766;22;20405;-83
2023/07/15 05:24:18;;;;;;;2.70;2.50;;;24.20;61.30;;;;;;6256592;22;20417;-85
2023/07/15 05:26:45;;;;;;;2.93;2.23;;;24.40;62.20;;;;;;6278552;22;20407;-85
2023/07/15 05:29:13;;;;;;;2.73;2.27;;;24.50;61.30;;;;;;6253021;22;20501;-85
2023/07/15 05:31:40;;;;;;;3.10;2.60;;;24.50;61.40;;;;;;6279147;22;20503;-85
2023/07/15 05:34:07;;;;;;;2.40;2.20;;;24.40;61.40;;;;;;6258146;22;20431;-83
2023/07/15 05:36:34;;;;;;;2.60;1.97;;;24.40;61.10;;;;;;6266067;22;20415;-84
2023/07/15 05:39:01;;;;;;;3.10;2.50;;;24.30;61.00;;;;;;6266701;22;20434;-83
2023/07/15 05:41:28;;;;;;;4.30;2.13;;;24.30;60.60;;;;;;6284837;22;20387;-84
2023/07/15 05:43:58;;;;;;;2.53;1.63;;;24.40;60.40;;;;;;6258195;22;20431;-82
2023/07/15 05:46:25;;;;;;;4.23;1.87;;;24.30;60.60;;;;;;6257501;22;20410;-81
2023/07/15 05:48:52;;;;;;;2.33;2.00;;;24.50;60.50;;;;;;6284652;22;20924;-83
2023/07/15 05:51:20;;;;;;;3.33;2.40;;;24.50;60.20;;;;;;6276514;22;20411;-82
2023/07/15 05:53:46;;;;;;;5.57;1.90;;;24.60;60.10;;;;;;6253203;22;20421;-80
2023/07/15 05:56:13;;;;;;;2.37;2.17;;;24.60;60.00;;;;;;6280906;22;20463;-81
2023/07/15 05:58:40;;;;;;;2.37;1.80;;;24.60;60.20;;;;;;6268466;22;20526;-82
2023/07/15 06:01:07;;;;;;;3.43;2.40;;;24.60;60.00;;;;;;6295305;22;20509;-84
2023/07/15 06:03:34;;;;;;;2.73;2.10;;;24.70;59.90;;;;;;6294842;22;20415;-81
2023/07/15 06:06:01;;;;;;;2.10;1.90;;;24.70;60.30;;;;;;6269405;22;20479;-83
2023/07/15 06:08:29;;;;;;;3.97;2.00;;;24.90;60.10;;;;;;6267273;22;20423;-84
2023/07/15 06:10:57;;;;;;;1.90;1.80;;;25.10;59.80;;;;;;6263969;22;20411;-83
2023/07/15 06:13:24;;;;;;;4.40;2.03;;;25.20;59.90;;;;;;6247234;22;20391;-83
2023/07/15 06:15:53;;;;;;;2.10;1.90;;;25.30;59.90;;;;;;6245208;22;21082;-83
2023/07/15 06:18:20;;;;;;;2.20;2.00;;;25.50;59.80;;;;;;6270718;22;20427;-84
2023/07/15 06:20:49;;;;;;;3.20;2.07;;;25.60;59.50;;;;;;6243982;22;20446;-82
2023/07/15 06:23:16;;;;;;;3.83;2.33;;;25.70;58.70;;;;;;6244372;22;20407;-83
2023/07/15 06:25:43;;;;;;;2.20;2.00;;;25.80;58.40;;;;;;6275162;22;20407;-84
2023/07/15 06:28:10;;;;;;;2.30;1.90;;;26.00;58.20;;;;;;6251821;22;20423;-85
2023/07/15 06:30:37;;;;;;;2.53;2.30;;;26.10;57.90;;;;;;6251071;22;20477;-84
2023/07/15 06:33:03;;;;;;;4.57;2.00;;;26.20;57.90;;;;;;6250493;22;20411;-83
2023/07/15 06:35:33;;;;;;;2.23;1.87;;;26.20;57.50;;;;;;6247628;22;20430;-83
2023/07/15 06:38:00;;;;;;;2.33;2.10;;;26.40;57.10;;;;;;6246892;22;20437;-83
2023/07/15 06:40:28;;;;;;;2.83;2.20;;;26.50;57.00;;;;;;6245863;22;20971;-84
2023/07/15 06:42:58;;;;;;;1.60;1.50;;;26.50;56.60;;;;;;6247446;22;20410;-85
2023/07/15 06:45:41;;;;;;;2.10;1.90;;;26.60;56.90;;;;;;6280160;22;20423;-84
2023/07/15 06:48:25;;;;;;;2.70;2.20;;;26.50;56.60;;;;;;6246801;22;20435;-82
2023/07/15 06:50:53;;;;;;;3.00;2.33;;;26.40;56.70;;;;;;6244367;22;20518;-84
2023/07/15 06:53:30;;;;;;;3.03;1.80;;;26.40;56.90;;;;;;6287589;22;20463;-83
2023/07/15 06:55:57;;;;;;;2.23;1.83;;;26.20;57.40;;;;;;6277123;22;20409;-84
2023/07/15 06:58:45;;;;;;;2.10;1.90;;;26.20;57.40;;;;;;6282918;22;20452;-84
2023/07/15 07:01:12;;;;;;;3.93;1.70;;;26.30;57.50;;;;;;6276855;22;20426;-84
2023/07/15 07:03:45;;;;;;;1.47;1.30;;;26.70;56.90;;;;;;6288893;22;20509;-83
2023/07/15 07:06:12;;;;;;;2.50;2.27;;;26.70;57.00;;;;;;6306658;22;20410;-83
2023/07/15 07:08:56;;;;;;;2.10;2.00;;;26.80;56.90;;;;;;6322668;22;20406;-82
2023/07/15 07:11:39;;;;;;;2.20;2.00;;;26.70;57.10;;;;;;6268831;22;20519;-82
2023/07/15 07:14:22;;;;;;;1.67;1.57;;;26.60;57.60;;;;;;6272170;22;20463;-84
2023/07/15 07:19:47;;;;;;;2.13;1.93;;;26.40;58.30;;;;;;6259960;22;20520;-83
2023/07/15 07:22:57;;;;;;;2.33;2.13;;;26.30;58.20;;;;;;6254735;22;20533;-84
2023/07/15 07:25:25;;;;;;;2.27;1.77;;;26.40;57.50;;;;;;6234857;22;20419;-81
2023/07/15 07:27:52;;;;;;;1.57;1.47;;;26.40;57.20;;;;;;6273067;22;20431;-83
2023/07/15 07:30:19;;;;;;;4.43;2.00;;;26.40;57.20;;;;;;6247805;22;20529;-84
2023/07/15 07:32:48;;;;;;;2.40;2.20;;;26.20;57.80;;;;;;6282357;22;20431;-84
2023/07/15 07:35:16;;;;;;;1.67;1.57;;;26.30;58.50;;;;;;6273537;22;20459;-82
2023/07/15 07:37:44;;;;;;;3.57;1.90;;;26.30;58.80;;;;;;6249208;22;20415;-84
2023/07/15 07:40:11;;;;;;;1.63;1.53;;;26.30;59.40;;;;;;6275306;22;20492;-84
2023/07/15 07:42:38;;;;;;;4.03;2.03;;;26.00;60.50;;;;;;6275427;22;20414;-83
2023/07/15 07:45:13;;;;;;;3.97;2.20;;;26.00;61.90;;;;;;6248891;22;20399;-83
2023/07/15 07:47:40;;;;;;;2.30;2.10;;;25.80;62.60;;;;;;6250526;22;20443;-83
2023/07/15 07:50:07;;;;;;;2.00;1.90;;;25.70;64.40;;;;;;6250851;22;20441;-82
2023/07/15 07:52:34;;;;;;;3.10;2.10;;;25.70;64.70;;;;;;6250829;22;20487;-84
2023/07/15 07:55:03;;;;;;;2.13;1.93;;;25.70;65.40;;;;;;6259601;22;20415;-85
2023/07/15 07:57:30;;;;;;;1.90;1.80;;;25.70;65.20;;;;;;6279856;22;20441;-83
2023/07/15 07:59:56;;;;;;;2.20;2.00;;;25.50;66.80;;;;;;6251683;22;20435;-84
2023/07/15 08:02:26;;;;;;;2.43;2.23;;;25.50;68.10;;;;;;6255163;22;20892;-84
2023/07/15 08:04:53;;;;;;;2.40;2.20;;;25.60;67.40;;;;;;6290319;22;20462;-84
2023/07/15 08:07:20;;;;;;;2.27;1.97;;;25.50;67.10;;;;;;6265416;22;20403;-83
2023/07/15 08:09:49;;;;;;;2.07;1.87;;;25.40;68.30;;;;;;6254330;22;20462;-83
2023/07/15 08:15:10;;;;;;;2.00;1.90;;;25.30;68.40;;;;;;6301148;22;20457;-85
2023/07/15 08:17:37;;;;;;;3.87;2.37;;;25.10;70.80;;;;;;6280748;22;20399;-85
2023/07/15 08:20:05;;;;;;;2.40;2.20;;;24.90;74.50;;;;;;6287264;22;20442;-83
2023/07/15 08:22:32;;;;;;;2.23;1.93;;;24.80;75.50;;;;;;6318051;22;20549;-81
2023/07/15 08:27:27;;;;;;;2.73;2.10;;;24.50;77.80;;;;;;6261060;22;20438;-83
2023/07/15 08:29:56;;;;;;;3.20;2.30;;;24.40;81.60;;;;;;6253572;22;20509;-84
2023/07/15 08:35:03;;;;;;;5.03;2.20;;;24.20;87.40;;;;;;6290952;22;20417;-83
2023/07/15 08:37:33;;;;;;;2.17;2.00;;;24.10;90.00;;;;;;6289067;22;20474;-85
2023/07/15 08:40:07;;;;;;;3.47;2.17;;;23.90;91.50;;;;;;6277116;22;20470;-82
2023/07/15 08:42:36;;;;;;;2.90;2.00;;;24.00;92.30;;;;;;6279669;22;20424;-84
2023/07/15 08:45:03;;;;;;;5.20;2.90;;;23.90;93.30;;;;;;6283981;22;20419;-85
2023/07/15 08:47:30;;;;;;;2.60;2.40;;;23.70;94.20;;;;;;6293502;22;20415;-86
2023/07/15 08:50:01;;;;;;;3.40;2.70;;;23.70;94.80;;;;;;6291978;22;20416;-83
2023/07/15 08:52:30;;;;;;;2.20;2.00;;;23.50;95.70;;;;;;6262507;22;20400;-84
2023/07/15 08:54:59;;;;;;;2.03;1.83;;;23.30;96.60;;;;;;6288480;22;20407;-84
2023/07/15 08:57:26;;;;;;;1.87;1.70;;;23.20;97.30;;;;;;6259488;22;20455;-84
2023/07/15 08:59:54;;;;;;;3.10;2.03;;;23.20;97.50;;;;;;6287892;22;20421;-85
2023/07/15 09:02:22;;;;;;;2.07;1.90;;;23.10;97.70;;;;;;6263709;22;20391;-81
2023/07/15 09:04:50;;;;;;;2.47;2.27;;;23.00;98.00;;;;;;6263938;22;20431;-83
2023/07/15 09:07:26;;;;;;;2.77;2.37;;;23.00;98.10;;;;;;6258888;22;20418;-83
2023/07/15 09:09:55;;;;;;;3.60;2.40;;;23.00;98.40;;;;;;6284811;22;20441;-83
2023/07/15 09:12:26;;;;;;;3.80;2.43;;;23.20;98.50;;;;;;6289798;22;20406;-84
2023/07/15 09:14:57;;;;;;;4.47;2.50;;;23.20;98.40;;;;;;6261331;22;20434;-83
2023/07/15 09:17:27;;;;;;;2.27;2.07;;;23.30;98.70;;;;;;6256738;22;20453;-83
2023/07/15 09:19:54;;;;;;;4.50;2.60;;;23.30;99.00;;;;;;6250660;22;20406;-84
2023/07/15 09:22:23;;;;;;;3.83;2.80;;;23.40;98.50;;;;;;6248243;22;20604;-82
2023/07/15 09:24:49;;;;;;;2.23;2.03;;;23.30;98.80;;;;;;6275439;22;20430;-84
2023/07/15 09:27:16;;;;;;;2.73;2.50;;;23.10;99.40;;;;;;6275795;22;20441;-82
2023/07/15 09:29:49;;;;;;;3.00;2.70;;;22.90;99.90;;;;;;6276520;22;20489;-84
2023/07/15 09:32:22;;;;;;;4.17;2.60;;;22.70;99.90;;;;;;6247371;22;20390;-82
2023/07/15 09:34:54;;;;;;;3.17;2.47;;;22.60;99.90;;;;;;6244901;22;20449;-83
2023/07/15 09:37:29;;;;;;;2.93;2.27;;;22.60;99.90;;;;;;6271234;22;20396;-83
2023/07/15 09:39:59;;;;;;;3.47;2.63;;;22.50;99.90;;;;;;6271207;22;20466;-83
2023/07/15 09:42:27;;;;;;;2.90;2.30;;;22.40;99.90;;;;;;6270960;22;20433;-84
2023/07/15 09:44:56;;;;;;;3.63;3.10;;;22.40;99.90;;;;;;6278996;22;20504;-83
2023/07/15 09:47:24;;;;;;;6.60;2.20;;;22.40;99.90;;;;;;6247767;22;20399;-83
2023/07/15 09:49:51;;;;;;;3.30;2.40;;;22.50;99.90;;;;;;6248232;22;20474;-84
2023/07/15 09:52:18;;;;;;;3.60;2.20;;;22.60;99.90;;;;;;6247327;22;20410;-82
2023/07/15 09:54:45;;;;;;;6.50;2.67;;;22.50;99.90;;;;;;6247382;22;20439;-85
2023/07/15 09:57:14;;;;;;;4.87;2.83;;;22.70;99.90;;;;;;6247229;22;20411;-85
2023/07/15 09:59:46;;;;;;;2.23;2.03;;;22.80;99.90;;;;;;6247585;22;20424;-84
2023/07/15 10:02:34;;;;;;;3.80;3.40;;;22.70;99.90;;;;;;6251162;22;20504;-84
2023/07/15 10:05:06;;;;;;;4.60;2.87;;;22.60;99.90;;;;;;6249160;22;20411;-84
2023/07/15 10:07:33;;;;;;;2.93;2.57;;;22.50;99.90;;;;;;6246538;22;20403;-84
2023/07/15 10:10:01;;;;;;;3.70;2.87;;;22.40;99.90;;;;;;6249601;22;21335;-84
2023/07/15 10:12:29;;;;;;;3.10;2.83;;;22.30;99.90;;;;;;6250771;22;20467;-85
2023/07/15 10:14:57;;;;;;;3.17;2.87;;;22.60;99.90;;;;;;6278268;22;20418;-84
2023/07/15 10:17:32;;;;;;;4.07;3.23;;;22.60;99.90;;;;;;6279657;22;20391;-83
2023/07/15 10:20:12;;;;;;;2.53;2.33;;;22.50;99.90;;;;;;6278712;22;20431;-84
2023/07/15 10:22:45;;;;;;;3.30;3.00;;;22.50;99.90;;;;;;6251671;22;20456;-84
2023/07/15 10:25:15;;;;;;;4.83;2.70;;;22.50;99.90;;;;;;6277015;22;20414;-84
2023/07/15 10:27:47;;;;;;;4.50;2.93;;;22.40;99.90;;;;;;6276320;22;20420;-85
2023/07/15 10:30:27;;;;;;;6.50;3.27;;;22.40;99.90;;;;;;6276085;22;20492;-83
2023/07/15 10:33:01;;;;;;;5.13;3.00;;;22.40;99.90;;;;;;6272313;22;20427;-83
2023/07/15 10:35:33;;;;;;;4.13;2.87;;;22.40;99.90;;;;;;6276425;22;20403;-83
2023/07/15 10:38:19;;;;;;;8.10;3.33;;;22.40;99.90;;;;;;6247009;22;20407;-82
2023/07/15 10:40:51;;;;;;;3.17;2.80;;;22.30;99.90;;;;;;6275364;22;20912;-83
2023/07/15 10:43:23;;;;;;;3.07;2.60;;;22.40;99.90;;;;;;6248675;22;20439;-83
2023/07/15 10:45:54;;;;;;;3.67;2.37;;;22.50;99.90;;;;;;6245788;22;20517;-83
2023/07/15 10:48:22;;;;;;;3.83;2.63;;;22.60;99.90;;;;;;6275462;22;20451;-84
2023/07/15 10:50:54;;;;;;;2.80;2.60;;;22.50;99.90;;;;;;6251348;22;20483;-83
2023/07/15 10:53:22;;;;;;;3.53;2.50;;;22.60;99.90;;;;;;6251936;22;20888;-83
2023/07/15 10:56:02;;;;;;;2.87;2.67;;;22.70;99.90;;;;;;6254058;22;20422;-83
2023/07/15 10:58:33;;;;;;;3.00;2.70;;;22.80;99.90;;;;;;6280168;22;20430;-82
2023/07/15 11:01:01;;;;;;;4.13;2.87;;;23.00;99.90;;;;;;6260506;22;20483;-84
2023/07/15 11:03:30;;;;;;;3.73;2.70;;;22.90;99.90;;;;;;6267479;22;20433;-82
2023/07/15 11:05:58;;;;;;;5.50;2.80;;;23.00;99.90;;;;;;6265235;22;20465;-82
2023/07/15 11:08:25;;;;;;;2.33;2.13;;;23.00;99.90;;;;;;6249396;22;20435;-82
2023/07/15 11:11:06;;;;;;;4.80;2.90;;;22.90;99.90;;;;;;6274642;22;20488;-83
2023/07/15 11:13:37;;;;;;;3.10;2.80;;;23.00;99.90;;;;;;6247040;22;20490;-85
2023/07/15 11:16:04;;;;;;;4.33;3.23;;;23.00;99.90;;;;;;6272942;22;20435;-83
2023/07/15 11:18:32;;;;;;;3.23;2.50;;;23.00;99.90;;;;;;6246394;22;20662;-83
2023/07/15 11:21:00;;;;;;;3.23;2.93;;;22.90;99.90;;;;;;6248365;22;20449;-82
2023/07/15 11:23:28;;;;;;;3.83;2.73;;;22.80;99.90;;;;;;6248796;22;20407;-82
2023/07/15 11:25:59;;;;;;;3.33;3.00;;;23.00;99.90;;;;;;6272752;22;20415;-83
2023/07/15 11:28:26;;;;;;;3.03;2.83;;;23.10;99.90;;;;;;6272684;22;20940;-82
2023/07/15 11:30:53;;;;;;;4.33;3.63;;;23.10;99.90;;;;;;6271653;22;20467;-83
2023/07/15 11:33:22;;;;;;;3.50;3.03;;;23.20;99.90;;;;;;6272805;22;20441;-83
2023/07/15 11:35:49;;;;;;;3.13;2.90;;;23.20;99.90;;;;;;6272164;22;20463;-82
2023/07/15 11:38:28;;;;;;;3.43;3.13;;;23.20;99.90;;;;;;6246447;22;20427;-84
2023/07/15 11:40:58;;;;;;;3.93;3.53;;;23.20;99.90;;;;;;6271951;22;20443;-82
2023/07/15 11:43:27;;;;;;;4.20;3.40;;;23.20;99.90;;;;;;6246925;22;20556;-83
2023/07/15 11:45:58;;;;;;;4.37;3.70;;;23.30;99.90;;;;;;6248112;22;20416;-83
2023/07/15 11:48:33;;;;;;;2.83;2.63;;;23.50;99.90;;;;;;6244513;22;20455;-84
2023/07/15 11:51:05;;;;;;;3.83;3.53;;;23.40;99.90;;;;;;6243724;22;20425;-83
2023/07/15 11:53:37;;;;;;;3.20;2.87;;;23.60;99.90;;;;;;6245379;22;20485;-85
2023/07/15 11:56:08;;;;;;;4.93;3.40;;;23.60;99.90;;;;;;6271011;22;20430;-84
2023/07/15 11:58:42;;;;;;;3.90;3.30;;;23.50;99.90;;;;;;6248757;22;20442;-85
2023/07/15 12:01:17;;;;;;;3.80;3.37;;;23.70;99.90;;;;;;6249879;22;20465;-83
2023/07/15 12:03:45;;;;;;;3.50;3.13;;;23.90;99.90;;;;;;6245937;22;20442;-84
2023/07/15 12:06:17;;;;;;;3.60;3.30;;;24.00;99.90;;;;;;6247693;22;20411;-84
2023/07/15 12:09:05;;;;;;;4.63;4.13;;;24.30;99.90;;;;;;6246132;22;20453;-83
2023/07/15 12:11:33;;;;;;;3.43;3.13;;;24.20;99.90;;;;;;6246113;22;20468;-86
2023/07/15 12:14:07;;;;;;;3.53;3.20;;;24.10;99.90;;;;;;6274807;22;20475;-82
2023/07/15 12:16:37;;;;;;;4.80;3.90;;;24.20;99.90;;;;;;6277395;22;20503;-84
2023/07/15 12:24:39;;;;;;;8.43;3.90;;;24.20;99.90;;;;;;6245261;23;20538;-84
2023/07/15 12:27:08;;;;;;;3.60;3.40;;;23.90;99.90;;;;;;6248484;22;20387;-86
2023/07/15 12:29:38;;;;;;;4.00;3.60;;;24.20;99.90;;;;;;6263297;22;20474;-84
2023/07/15 12:32:07;;;;;;;3.57;3.27;;;24.00;99.90;;;;;;6264444;22;20430;-85
2023/07/15 12:34:40;;;;;;;4.67;3.87;;;24.20;99.90;;;;;;6267816;22;20404;-84
2023/07/15 12:37:12;;;;;;;6.90;3.40;;;24.40;99.90;;;;;;6282419;22;20454;-84
2023/07/15 12:39:41;;;;;;;3.80;3.50;;;24.50;99.90;;;;;;6269560;22;20419;-82
2023/07/15 12:42:08;;;;;;;4.60;3.87;;;24.50;99.90;;;;;;6270164;22;20427;-85
2023/07/15 12:44:40;;;;;;;4.00;3.70;;;24.30;99.90;;;;;;6292680;22;20494;-82
2023/07/15 12:47:13;;;;;;;4.20;3.80;;;24.50;99.90;;;;;;6291502;22;20754;-85
2023/07/15 12:49:43;;;;;;;4.87;4.27;;;24.40;99.90;;;;;;6290809;22;20422;-84
2023/07/15 12:54:48;;;;;;;6.47;4.47;;;24.30;99.90;;;;;;6301677;22;20479;-84
2023/07/15 12:59:59;;;;;;;6.03;4.50;;;24.20;99.90;;;;;;6280405;22;20453;-83
2023/07/15 13:02:28;;;;;;;4.30;3.90;;;24.30;99.90;;;;;;6264709;22;20442;-82
2023/07/15 13:04:58;;;;;;;4.93;4.53;;;24.30;99.90;;;;;;6259271;22;20471;-83
2023/07/15 13:07:24;;;;;;;5.50;5.00;;;24.20;99.90;;;;;;6285250;22;20411;-83
2023/07/15 13:09:51;;;;;;;4.63;4.20;;;24.20;99.90;;;;;;6254054;22;20401;-82
2023/07/15 13:12:20;;;;;;;4.87;4.47;;;24.40;99.90;;;;;;6258741;22;21167;-83
2023/07/15 13:14:49;;;;;;;4.43;4.03;;;24.40;99.90;;;;;;6252639;22;20413;-85
2023/07/15 13:17:22;;;;;;;4.37;4.07;;;24.50;99.90;;;;;;6252625;22;20383;-83
2023/07/15 13:19:50;;;;;;;4.90;4.40;;;24.60;99.90;;;;;;6287284;22;20422;-82
2023/07/15 13:22:24;;;;;;;3.63;3.30;;;24.60;99.90;;;;;;6285670;22;20438;-81
2023/07/15 13:24:52;;;;;;;4.53;4.13;;;24.40;99.90;;;;;;6280912;22;20433;-83
2023/07/15 13:27:19;;;;;;;4.10;3.70;;;24.50;99.90;;;;;;6285863;22;20422;-82
2023/07/15 13:30:10;;;;;;;3.93;3.53;;;24.70;99.90;;;;;;6261773;22;20427;-82
2023/07/15 13:32:43;;;;;;;3.73;3.40;;;24.70;99.90;;;;;;6279964;22;20446;-83
2023/07/15 13:35:10;;;;;;;4.73;4.27;;;24.70;99.90;;;;;;6260890;22;20395;-83
2023/07/15 13:37:37;;;;;;;3.60;3.30;;;24.80;99.90;;;;;;6280523;22;20453;-82
2023/07/15 13:40:05;;;;;;;4.10;3.60;;;24.70;99.90;;;;;;6278898;22;20455;-83
2023/07/15 13:42:32;;;;;;;3.77;3.47;;;24.80;99.90;;;;;;6285657;22;20435;-82
2023/07/15 13:44:59;;;;;;;10.07;3.33;;;24.90;99.90;;;;;;6262955;22;20481;-80
2023/07/15 13:47:26;;;;;;;3.90;3.60;;;24.90;99.90;;;;;;6289629;22;20415;-81
2023/07/15 13:49:53;;;;;;;5.57;3.10;;;25.00;99.90;;;;;;6265729;22;20410;-83
2023/07/15 13:52:22;;;;;;;3.47;3.17;;;25.10;99.90;;;;;;6263109;22;20407;-83
2023/07/15 13:54:49;;;;;;;3.10;2.80;;;25.20;99.90;;;;;;6279826;22;20439;-84
2023/07/15 13:57:16;;;;;;;3.27;2.97;;;25.20;99.90;;;;;;6260209;22;20415;-82